This is the latest recevied weather packets stored in our database for station/object W6KRP-12. If no packets are shown the sender has not sent any weather packets the latest 10 day(s).
| Time | Temp. | Humidity | Pressure | Rain* | Wind** | Luminosity | Snow |
|---|---|---|---|---|---|---|---|
| 1777487407 | 28.89° C | 53% | 1008.9 hPa | 0 mm | - | - | - |
| 1777480807 | 24.44° C | 72% | 1010.5 hPa | 0 mm | - | - | - |
| 1777477207 | 22.78° C | 79% | 1011.6 hPa | 0 mm | - | - | - |
| 1777473605 | 22.22° C | 83% | 1012.2 hPa | 0 mm | - | - | - |
| 1777469405 | 18.33° C | 93% | 1012.7 hPa | 0 mm | - | - | - |
| 1777465805 | 17.22° C | 96% | 1012.9 hPa | 0.25 mm | - | - | - |
| 1777461605 | 14.44° C | 95% | 1012.9 hPa | 0 mm | - | - | - |
| 1777458006 | 13.89° C | 96% | 1012.7 hPa | 0 mm | - | - | - |
| 1777457406 | 13.33° C | 96% | 1012.5 hPa | 0 mm | - | - | - |
| 1777456205 | 13.33° C | 96% | 1012.6 hPa | 0 mm | - | - | - |
| 1777455006 | 13.33° C | 96% | 1012.6 hPa | 0 mm | - | - | - |
| 1777452005 | 13.33° C | 95% | 1012.1 hPa | 0 mm | - | - | - |
| 1777450206 | 13.33° C | 95% | 1012.3 hPa | 0 mm | - | - | - |
| 1777444805 | 13.33° C | 94% | 1013.1 hPa | 0 mm | - | - | - |
| 1777444205 | 13.33° C | 94% | 1013.4 hPa | 0 mm | - | - | - |
| 1777432806 | 15° C | 89% | 1016 hPa | 0 mm | - | - | - |
| 1777427406 | 16.11° C | 84% | 1015.8 hPa | 0 mm | - | - | - |
| 1777425605 | 17.22° C | 80% | 1015.7 hPa | 0 mm | - | - | - |
| 1777425005 | 17.22° C | 79% | 1015.4 hPa | 0 mm | - | - | - |
| 1777419609 | 21.67° C | 61% | 1014.1 hPa | 0 mm | - | - | - |
| 1777415405 | 23.33° C | 53% | 1014.7 hPa | 0 mm | - | - | - |
| 1777414205 | 23.33° C | 53% | 1014.6 hPa | 0 mm | - | - | - |
| 1777408805 | 23.89° C | 55% | 1015 hPa | 0 mm | - | - | - |
| 1777401006 | 24.44° C | 57% | 1016.8 hPa | 0 mm | - | - | - |
| 1777400405 | 22.78° C | 60% | 1016.9 hPa | 0 mm | - | - | - |
* Rain latest hour (hover to see other rain measurements)
** Current wind speed in m/s (hover to see current wind gust speed)